Mount Sidney, Virginia
Current Conditions -  °F | °C
As of 12:15 PM on Friday 24 Oct 2014 (Local Time) from KSHD Reporting Station
Clear Clear  
Wind Chill: 57°   Ceiling: Unl
Heat Index: 57°   Visibility: 10mi
Dew Point: 39°   Wind: 0mph
Humidity: 50%   Direction: NA
Pressure: 30.05"   Gusts: NA
Location:  38.26°N, 78.96°W
Report Text: KSHD 241615Z AUTO 00000KT 10SM CLR 14/04 A3005 RMK AO2 T01410039
Loading
Personal Weather Stations






























Interactive Weather Map
Tropical Storm Tracking
New forecast layout! Learn more

10-Day Weather Forecast

Advertisements
Track Severe Weather on mobile